Terminal Aerodrome Forecast
Issued by NWS Sterling, VA

Current Version | Previous Version | Graphics & Text | Print | Product List | Glossary On
Versions: 1 2 3 4 5 6 7 8 9 10 11 12 13 14 15 16 17 18 19 20 21 22
382
FTUS41 KLWX 212323 AAB
TAFIAD
TAF AMD
KIAD 212323Z 2123/2224 16005KT P6SM BKN200
     FM221000 17004KT P6SM OVC100
     FM222000 19005KT P6SM SCT060 BKN200=

USA.gov is the U.S. government's official web portal to all federal, state and local government web resources and services.